Time;durP1;ratioP1;P1;durP2;ratioP2;P2;SDS_P1;SDS_P2;PMS_P1;PMS_P2;Temp;Humidity;BMP_temperature;BMP_pressure;BME280_temperature;BME280_humidity;BME280_pressure;Samples;Min_cycle;Max_cycle;Signal;HPM_P1;HPM_P2
2023/09/27 07:23:15;;;;;;;11.15;9.02;;;;;;;-145.79;93.01;77754.59;5329524;27;20391;-68
2023/09/27 07:25:47;;;;;;;11.15;9.18;;;;;;;-145.79;93.53;77754.59;5329496;27;20487;-68
2023/09/27 07:28:19;;;;;;;11.07;9.15;;;;;;;-145.79;93.71;77760.94;5329688;28;20398;-69
2023/09/27 07:30:52;;;;;;;10.45;9.50;;;;;;;-145.79;94.10;77746.09;5330617;27;20024;-68
2023/09/27 07:33:24;;;;;;;9.70;7.57;;;;;;;-145.79;93.89;77746.09;5329800;28;20031;-68
2023/09/27 07:35:58;;;;;;;9.27;7.93;;;;;;;-145.79;94.28;77739.75;5333805;28;20059;-68
2023/09/27 07:38:29;;;;;;;8.82;7.90;;;;;;;-145.79;94.04;77737.63;5334778;27;20050;-69
2023/09/27 07:41:01;;;;;;;9.15;8.23;;;;;;;-145.79;93.89;77729.16;5327413;28;20111;-69
2023/09/27 07:43:32;;;;;;;10.32;8.82;;;;;;;-145.79;93.67;77720.66;5329765;28;20024;-69
2023/09/27 07:46:06;;;;;;;12.25;9.25;;;;;;;-145.79;93.78;77705.84;5325490;28;20468;-69
2023/09/27 07:48:39;;;;;;;9.77;8.77;;;;;;;-145.79;93.95;77701.59;5328397;28;20015;-68
2023/09/27 07:51:14;;;;;;;10.00;9.00;;;;;;;-145.79;93.66;77691.00;5330877;27;20448;-69
2023/09/27 07:53:46;;;;;;;12.45;8.25;;;;;;;-145.79;93.73;77674.03;5329088;28;20031;-69
2023/09/27 07:56:19;;;;;;;10.85;9.82;;;;;;;-145.79;92.86;77691.00;5333908;28;20031;-69
2023/09/27 07:58:52;;;;;;;11.18;10.02;;;;;;;-145.79;92.62;77682.50;5331416;27;20026;-69
2023/09/27 08:01:24;;;;;;;12.13;10.15;;;;;;;-145.79;92.61;77674.03;5328584;27;20019;-69
2023/09/27 08:04:05;;;;;;;10.13;9.13;;;;;;;-145.79;92.29;77669.78;5327907;28;20036;-68
2023/09/27 08:06:36;;;;;;;10.70;9.05;;;;;;;-145.79;91.82;77665.56;5329973;28;20159;-68
2023/09/27 08:09:08;;;;;;;11.05;9.95;;;;;;;-145.79;91.37;77667.69;5332718;27;20023;-69
2023/09/27 08:11:39;;;;;;;11.52;8.75;;;;;;;-145.79;91.19;77669.78;5330354;28;20109;-69
2023/09/27 08:14:11;;;;;;;10.23;9.07;;;;;;;-145.79;91.31;77663.44;5329211;27;20363;-69
2023/09/27 08:16:43;;;;;;;12.05;9.43;;;;;;;-145.79;91.03;77654.97;5334037;27;20086;-68
2023/09/27 08:19:14;;;;;;;11.23;8.80;;;;;;;-145.79;90.63;77652.84;5331202;27;20042;-69
2023/09/27 08:21:45;;;;;;;10.43;8.93;;;;;;;-145.79;90.28;77652.84;5328869;28;20052;-70
2023/09/27 08:24:17;;;;;;;12.73;9.30;;;;;;;-145.79;90.36;77659.19;5331010;28;20019;-70
2023/09/27 08:26:48;;;;;;;10.82;9.73;;;;;;;-145.79;90.50;77652.84;5329821;27;20032;-70
2023/09/27 08:29:21;;;;;;;11.30;10.10;;;;;;;-145.79;90.58;77648.59;5327034;28;20032;-69
2023/09/27 08:31:54;;;;;;;9.20;8.30;;;;;;;-145.79;90.03;77633.75;5333023;28;20386;-69
2023/09/27 08:34:25;;;;;;;15.30;10.98;;;;;;;-145.79;90.72;77640.13;5320129;28;20498;-69
2023/09/27 08:36:57;;;;;;;11.40;10.20;;;;;;;-145.79;91.11;77631.63;5310155;28;20020;-70
2023/09/27 08:39:28;;;;;;;11.02;9.88;;;;;;;-145.79;90.63;77618.91;5315241;28;20055;-69
2023/09/27 08:42:01;;;;;;;14.50;11.52;;;;;;;-145.79;88.99;77614.69;5318391;28;20050;-69
2023/09/27 08:44:33;;;;;;;35.28;32.10;;;;;;;-145.79;88.36;77601.97;5318329;28;20473;-69
2023/09/27 08:47:06;;;;;;;17.98;16.38;;;;;;;-145.79;88.61;77597.72;5315950;28;20429;-69
2023/09/27 08:49:37;;;;;;;10.85;9.57;;;;;;;-145.79;88.52;77576.53;5314307;28;20032;-70
2023/09/27 08:52:09;;;;;;;11.15;10.05;;;;;;;-145.79;89.00;77561.69;5313745;28;20113;-70
2023/09/27 08:54:41;;;;;;;11.45;10.25;;;;;;;-145.79;88.95;77542.59;5309626;28;20099;-71
2023/09/27 08:57:13;;;;;;;14.93;11.07;;;;;;;-145.79;88.81;77536.25;5317350;28;20077;-70
2023/09/27 08:59:45;;;;;;;11.38;10.13;;;;;;;-145.79;88.91;77523.53;5318500;28;20016;-70
2023/09/27 09:02:16;;;;;;;9.40;8.40;;;;;;;-145.79;88.95;77493.84;5315737;28;20040;-70
2023/09/27 09:04:48;;;;;;;10.30;9.23;;;;;;;-145.79;88.07;77483.25;5311681;28;20081;-68
2023/09/27 09:07:19;;;;;;;9.85;7.97;;;;;;;-145.79;88.36;77479.03;5315286;28;20027;-69
2023/09/27 09:09:51;;;;;;;7.78;6.97;;;;;;;-145.79;87.21;77468.41;5316991;28;20020;-68
2023/09/27 09:12:24;;;;;;;8.75;7.85;;;;;;;-145.79;86.52;77466.31;5315599;28;20036;-71
2023/09/27 09:14:55;;;;;;;8.20;6.93;;;;;;;-145.79;86.60;77453.59;5314548;28;20020;-71
2023/09/27 09:17:34;;;;;;;7.90;7.10;;;;;;;-145.79;86.43;77449.34;5315705;28;20024;-68
2023/09/27 09:20:32;;;;;;;8.20;7.50;;;;;;;-145.79;86.37;77445.09;5306062;28;20036;-70
2023/09/27 09:23:11;;;;;;;8.25;7.45;;;;;;;-145.79;86.33;77451.47;5305822;28;20043;-70
2023/09/27 09:25:43;;;;;;;9.07;7.90;;;;;;;-145.79;86.72;77453.59;5313104;28;20031;-69
2023/09/27 09:28:15;;;;;;;10.10;8.45;;;;;;;-145.79;86.38;77440.88;5308894;28;20016;-70
2023/09/27 09:30:46;;;;;;;10.45;8.80;;;;;;;-145.79;86.11;77430.25;5315391;28;20027;-69
2023/09/27 09:33:24;;;;;;;9.27;8.43;;;;;;;-145.79;85.69;77428.16;5317217;28;20506;-70
2023/09/27 09:35:56;;;;;;;9.07;8.23;;;;;;;-145.79;85.90;77417.53;5311306;28;20379;-69
2023/09/27 09:38:30;;;;;;;19.70;17.45;;;;;;;-145.79;85.60;77417.53;5317937;28;20030;-66
2023/09/27 09:41:01;;;;;;;9.50;8.43;;;;;;;-145.79;84.84;77415.44;5316256;28;20099;-69
2023/09/27 09:43:37;;;;;;;8.85;7.95;;;;;;;-145.79;84.68;77402.72;5310209;28;20103;-70
2023/09/27 09:46:10;;;;;;;10.02;9.00;;;;;;;-145.79;84.62;77387.88;5306543;28;20103;-71
2023/09/27 09:48:41;;;;;;;11.05;9.93;;;;;;;-145.79;83.97;77377.28;5315800;28;20024;-69
2023/09/27 09:51:15;;;;;;;11.13;8.38;;;;;;;-145.79;83.54;77373.03;5315858;28;20035;-70
2023/09/27 09:53:47;;;;;;;10.20;8.13;;;;;;;-145.79;83.67;77356.06;5290393;28;20032;-68
2023/09/27 09:56:20;;;;;;;10.25;9.20;;;;;;;-145.79;83.30;77334.88;5319727;28;20479;-70
2023/09/27 09:58:59;;;;;;;11.02;10.02;;;;;;;-145.79;83.09;77317.94;5318177;28;20024;-67
2023/09/27 10:01:32;;;;;;;10.82;9.65;;;;;;;-145.79;81.90;77311.56;5298041;28;20026;-69
2023/09/27 10:04:05;;;;;;;10.80;9.60;;;;;;;-145.79;82.13;77290.38;5317641;28;20028;-70
2023/09/27 10:06:37;;;;;;;9.55;8.75;;;;;;;-145.79;81.06;77275.53;5306611;28;20036;-70
2023/09/27 10:09:13;;;;;;;10.20;9.25;;;;;;;-145.79;81.04;77271.28;5311000;28;20073;-69
2023/09/27 10:11:46;;;;;;;12.85;8.90;;;;;;;-145.79;80.49;77275.53;5316976;27;20031;-68
2023/09/27 10:14:18;;;;;;;11.40;10.30;;;;;;;-145.79;80.81;77273.41;5316639;28;20464;-69
2023/09/27 10:16:50;;;;;;;9.70;8.80;;;;;;;-145.79;79.37;77275.53;5310470;28;20040;-66
2023/09/27 10:19:27;;;;;;;13.05;11.95;;;;;;;-145.79;78.22;77281.91;5312375;28;20467;-65
2023/09/27 10:22:07;;;;;;;10.15;9.25;;;;;;;-145.79;78.14;77264.94;5312011;28;20213;-66
2023/09/27 10:24:42;;;;;;;10.65;9.70;;;;;;;-145.79;77.92;77258.56;5310248;28;20067;-67
2023/09/27 10:27:14;;;;;;;9.75;8.85;;;;;;;-145.79;77.50;77243.75;5306449;28;20027;-65
2023/09/27 10:30:00;;;;;;;8.98;8.25;;;;;;;-145.79;77.28;77220.44;5295004;28;20035;-67
2023/09/27 10:32:31;;;;;;;10.10;9.10;;;;;;;-145.79;77.34;77199.22;5312516;28;20111;-66
2023/09/27 10:35:16;;;;;;;9.23;8.32;;;;;;;-145.79;77.41;77192.88;5304559;28;20491;-66
2023/09/27 10:38:00;;;;;;;12.15;9.57;;;;;;;-145.79;77.74;77199.22;5313855;28;20066;-66
2023/09/27 10:40:41;;;;;;;9.48;8.52;;;;;;;-145.79;77.39;77184.41;5307686;28;20081;-66
2023/09/27 10:43:40;;;;;;;8.73;8.00;;;;;;;-145.79;76.54;77173.78;5303011;28;20055;-67
2023/09/27 10:46:12;;;;;;;11.48;8.48;;;;;;;-145.79;75.97;77163.19;5296121;28;20398;-67
2023/09/27 10:48:52;;;;;;;9.57;8.57;;;;;;;-145.79;75.30;77150.47;5314879;28;20036;-67
2023/09/27 10:51:26;;;;;;;8.75;7.78;;;;;;;-145.79;74.64;77144.13;5292394;28;20028;-67
2023/09/27 10:53:57;;;;;;;8.77;7.70;;;;;;;-145.79;75.11;77127.16;5310962;28;20096;-67
2023/09/27 10:56:29;;;;;;;8.30;7.50;;;;;;;-145.79;74.74;77108.09;5308970;28;20077;-67
2023/09/27 10:59:00;;;;;;;8.73;7.72;;;;;;;-145.79;74.22;77110.22;5305132;28;20036;-67
2023/09/27 11:01:32;;;;;;;8.38;7.50;;;;;;;-145.79;73.61;77091.13;5306443;28;20024;-68
2023/09/27 11:04:04;;;;;;;9.75;6.57;;;;;;;-145.79;73.40;77097.50;5312282;28;20165;-68
2023/09/27 11:06:35;;;;;;;8.13;7.32;;;;;;;-145.79;73.50;77089.00;5296569;28;20021;-68
2023/09/27 11:09:08;;;;;;;9.00;7.43;;;;;;;-145.79;72.72;77082.66;5301429;28;20476;-68
2023/09/27 11:11:46;;;;;;;7.15;6.45;;;;;;;-145.79;72.86;77072.06;5297346;28;20109;-67
2023/09/27 11:14:33;;;;;;;7.53;6.18;;;;;;;-145.79;72.08;77067.81;5309807;28;20534;-67
2023/09/27 11:17:23;;;;;;;6.75;6.03;;;;;;;-145.79;71.86;77061.47;5308994;28;20028;-67
2023/09/27 11:19:55;;;;;;;9.82;7.18;;;;;;;-145.79;71.08;77061.47;5304605;28;20412;-65
2023/09/27 11:22:27;;;;;;;7.22;6.53;;;;;;;-145.79;71.84;77052.97;5318942;28;20054;-68
2023/09/27 11:24:58;;;;;;;9.50;5.57;;;;;;;-145.79;72.71;77042.38;5309435;28;20060;-66
2023/09/27 11:27:30;;;;;;;7.95;5.95;;;;;;;-145.79;72.16;77027.56;5305359;28;20085;-67
2023/09/27 11:30:01;;;;;;;7.80;6.00;;;;;;;-145.79;70.37;77019.06;5300858;28;20029;-67
2023/09/27 11:32:49;;;;;;;6.78;6.15;;;;;;;-145.79;69.80;77008.47;5315480;28;20419;-67
2023/09/27 11:35:21;;;;;;;7.03;6.28;;;;;;;-145.79;69.18;77000.00;5306302;28;20130;-67
2023/09/27 11:38:12;;;;;;;6.60;5.30;;;;;;;-145.79;69.11;76991.53;5311693;28;20514;-67
2023/09/27 11:40:43;;;;;;;6.07;4.88;;;;;;;-145.79;68.44;76974.56;5312226;28;20072;-67
2023/09/27 11:43:14;;;;;;;11.02;6.57;;;;;;;-145.79;67.62;76961.84;5308764;28;20513;-68
2023/09/27 11:45:47;;;;;;;5.15;4.65;;;;;;;-145.79;68.51;76949.13;5313180;28;20027;-67
2023/09/27 11:48:32;;;;;;;6.82;5.00;;;;;;;-145.79;68.01;76940.66;5304542;28;20036;-67
2023/09/27 11:51:04;;;;;;;6.03;5.07;;;;;;;-145.79;67.64;76942.78;5313678;28;20048;-66
2023/09/27 11:53:36;;;;;;;7.97;5.30;;;;;;;-145.79;67.09;76927.94;5313870;28;20034;-68
2023/09/27 11:56:07;;;;;;;6.28;5.32;;;;;;;-145.79;66.94;76915.22;5302415;28;20950;-66
2023/09/27 11:58:39;;;;;;;7.53;6.75;;;;;;;-145.79;67.09;76894.03;5308173;28;20510;-66
2023/09/27 12:01:11;;;;;;;6.55;5.32;;;;;;;-145.79;66.91;76872.84;5301773;28;20034;-67
2023/09/27 12:03:42;;;;;;;5.50;4.95;;;;;;;-145.79;66.21;76868.59;5309091;28;20030;-66
2023/09/27 12:06:14;;;;;;;6.10;5.28;;;;;;;-145.79;65.47;76847.41;5312508;28;20382;-65
2023/09/27 12:08:45;;;;;;;7.03;5.95;;;;;;;-145.79;65.05;76824.09;5302800;28;20024;-68
2023/09/27 12:11:18;;;;;;;7.40;5.63;;;;;;;-145.79;64.61;76805.00;5299348;28;20029;-68
2023/09/27 12:13:50;;;;;;;7.07;4.95;;;;;;;-145.79;62.28;76794.41;5312531;28;20019;-67
2023/09/27 12:16:22;;;;;;;6.38;5.78;;;;;;;-145.79;61.29;76785.94;5311653;28;20047;-67
2023/09/27 12:18:54;;;;;;;7.38;5.40;;;;;;;-145.79;60.88;76749.91;5307860;28;20099;-67
2023/09/27 12:21:25;;;;;;;7.13;5.60;;;;;;;-145.79;60.84;76749.91;5314941;28;20059;-68
2023/09/27 12:23:57;;;;;;;6.43;5.40;;;;;;;-145.79;60.48;76728.72;5312493;28;20490;-67
2023/09/27 12:26:29;;;;;;;5.90;5.28;;;;;;;-145.79;59.67;76716.00;5312452;28;20031;-67
2023/09/27 12:29:00;;;;;;;7.05;5.07;;;;;;;-145.79;60.01;76716.00;5309373;28;20115;-67
2023/09/27 12:31:32;;;;;;;6.10;5.05;;;;;;;-145.79;58.61;76707.53;5310771;28;20114;-66
2023/09/27 12:34:03;;;;;;;5.97;5.10;;;;;;;-145.79;59.20;76696.94;5291735;28;20504;-66
2023/09/27 12:36:35;;;;;;;8.13;5.72;;;;;;;-145.79;59.01;76699.06;5311594;28;20102;-66
2023/09/27 12:39:07;;;;;;;6.38;5.13;;;;;;;-145.79;59.61;76694.81;5312324;28;20058;-68
2023/09/27 12:41:38;;;;;;;5.20;4.40;;;;;;;-145.79;58.86;76682.09;5311874;28;20359;-68
2023/09/27 12:44:10;;;;;;;6.53;4.95;;;;;;;-145.79;58.59;76679.97;5312972;28;20411;-69
2023/09/27 12:46:41;;;;;;;6.07;4.38;;;;;;;-145.79;59.24;76673.63;5314010;28;20024;-67
2023/09/27 12:49:12;;;;;;;5.78;4.50;;;;;;;-145.79;59.55;76660.91;5316742;28;20023;-68
2023/09/27 12:51:43;;;;;;;7.25;6.57;;;;;;;-145.79;58.14;76627.00;5299830;28;20435;-67
2023/09/27 12:54:15;;;;;;;6.70;6.05;;;;;;;-145.79;58.82;76627.00;5316046;27;20051;-64
2023/09/27 12:56:46;;;;;;;6.82;5.82;;;;;;;-145.79;58.73;76603.69;5315501;28;20437;-66
2023/09/27 12:59:18;;;;;;;7.47;4.82;;;;;;;-145.79;57.79;76601.56;5313351;28;20025;-67
2023/09/27 13:01:49;;;;;;;5.85;5.25;;;;;;;-145.79;57.55;76595.22;5312068;28;20028;-68
2023/09/27 13:04:20;;;;;;;6.43;5.65;;;;;;;-145.79;57.10;76588.84;5315342;28;20027;-70
2023/09/27 13:06:51;;;;;;;7.85;5.35;;;;;;;-145.79;56.87;76610.03;5303072;28;20017;-68
2023/09/27 13:09:23;;;;;;;10.77;8.10;;;;;;;-145.79;57.80;76593.09;5306559;28;20127;-67
2023/09/27 13:11:55;;;;;;;6.78;4.40;;;;;;;-145.79;56.57;76578.25;5311876;28;20024;-68
2023/09/27 13:14:26;;;;;;;8.85;5.30;;;;;;;-145.79;56.94;76559.19;5311874;28;20023;-68
2023/09/27 13:16:57;;;;;;;5.55;4.95;;;;;;;-145.79;55.96;76550.69;5310399;28;20023;-68
2023/09/27 13:19:28;;;;;;;5.65;5.00;;;;;;;-145.79;56.32;76538.00;5314186;28;20751;-68
2023/09/27 13:22:00;;;;;;;6.00;4.85;;;;;;;-145.79;56.02;76546.47;5310507;28;20155;-68
2023/09/27 13:24:31;;;;;;;5.65;4.13;;;;;;;-145.79;56.38;76557.06;5313226;28;20020;-68
2023/09/27 13:27:02;;;;;;;10.18;4.90;;;;;;;-145.79;56.41;76559.19;5313181;28;20028;-68
2023/09/27 13:29:34;;;;;;;4.38;3.47;;;;;;;-145.79;56.03;76554.94;5303620;28;20032;-67
2023/09/27 13:32:06;;;;;;;4.07;3.47;;;;;;;-145.79;55.05;76552.81;5299137;28;20501;-68
2023/09/27 13:34:37;;;;;;;3.92;3.25;;;;;;;-145.79;55.43;76554.94;5310160;28;20028;-69
2023/09/27 13:37:09;;;;;;;4.93;3.33;;;;;;;-145.79;55.55;76542.22;5308999;28;20132;-70
2023/09/27 13:39:41;;;;;;;5.28;3.38;;;;;;;-145.79;55.23;76546.47;5297534;28;20024;-69
2023/09/27 13:42:12;;;;;;;4.80;3.83;;;;;;;-145.79;55.76;76529.50;5307700;28;20032;-70
2023/09/27 13:44:46;;;;;;;3.65;3.33;;;;;;;-145.79;54.87;76527.38;5305529;28;20142;-70
2023/09/27 13:47:18;;;;;;;5.70;3.75;;;;;;;-145.79;53.99;76538.00;5308585;28;20048;-70
2023/09/27 13:49:51;;;;;;;3.47;3.10;;;;;;;-145.79;54.32;76525.28;5319142;28;20035;-70
2023/09/27 13:52:22;;;;;;;3.88;3.03;;;;;;;-145.79;54.04;76529.50;5312861;28;20062;-70
2023/09/27 13:54:53;;;;;;;3.75;2.85;;;;;;;-145.79;53.62;76542.22;5312924;28;20056;-69
2023/09/27 13:57:25;;;;;;;4.82;2.90;;;;;;;-145.79;53.58;76542.22;5304639;28;20023;-69
2023/09/27 13:59:56;;;;;;;5.70;2.88;;;;;;;-145.79;54.22;76550.69;5305475;28;20032;-70
2023/09/27 14:02:27;;;;;;;3.92;3.50;;;;;;;-145.79;54.56;76554.94;5301244;28;20024;-71
2023/09/27 14:04:58;;;;;;;8.30;6.15;;;;;;;-145.79;54.67;76544.34;5308419;28;20038;-71
2023/09/27 14:07:31;;;;;;;4.80;3.42;;;;;;;-145.79;54.57;76548.59;5312650;28;20023;-71
2023/09/27 14:10:03;;;;;;;8.98;6.70;;;;;;;-145.79;54.86;76550.69;5310329;28;20028;-71
2023/09/27 14:12:34;;;;;;;4.85;3.35;;;;;;;-145.79;55.19;76554.94;5313955;28;20497;-71
2023/09/27 14:15:06;;;;;;;6.88;4.82;;;;;;;-145.79;55.47;76550.69;5297187;28;20115;-71
2023/09/27 14:17:38;;;;;;;23.65;21.05;;;;;;;-145.79;55.31;76546.47;5309172;28;20475;-71
2023/09/27 14:20:14;;;;;;;8.20;4.43;;;;;;;-145.79;55.90;76546.47;5307067;28;20028;-71
2023/09/27 14:22:45;;;;;;;5.95;3.30;;;;;;;-145.79;56.29;76529.50;5308237;28;20040;-71
2023/09/27 14:25:17;;;;;;;4.97;3.60;;;;;;;-145.79;56.53;76540.09;5303643;28;20031;-71
2023/09/27 14:27:48;;;;;;;5.00;3.60;;;;;;;-145.79;56.32;76531.63;5316581;28;20076;-71
2023/09/27 14:30:19;;;;;;;7.63;3.88;;;;;;;-145.79;56.15;76525.28;5319517;27;20028;-71
2023/09/27 14:32:51;;;;;;;4.72;3.97;;;;;;;-145.79;55.77;76533.75;5313721;28;20027;-71
2023/09/27 14:35:22;;;;;;;5.63;3.25;;;;;;;-145.79;55.39;76535.88;5306425;28;20024;-72
2023/09/27 14:37:55;;;;;;;8.18;5.90;;;;;;;-145.79;56.81;76525.28;5302711;28;20019;-71
2023/09/27 14:40:27;;;;;;;7.75;6.65;;;;;;;-145.79;56.73;76516.78;5311818;28;20035;-72
2023/09/27 14:42:59;;;;;;;5.07;3.90;;;;;;;-145.79;57.06;76512.56;5309541;28;20449;-72
2023/09/27 14:45:30;;;;;;;4.28;2.97;;;;;;;-145.79;56.81;76508.31;5316588;28;20023;-69
2023/09/27 14:48:05;;;;;;;7.57;3.65;;;;;;;-145.79;57.00;76510.44;5310618;28;20035;-69
2023/09/27 14:50:37;;;;;;;5.00;4.18;;;;;;;-145.79;57.52;76514.69;5304284;28;20449;-69
2023/09/27 14:53:09;;;;;;;6.68;3.53;;;;;;;-145.79;57.69;76506.19;5315733;28;20023;-71
2023/09/27 14:55:40;;;;;;;4.82;3.55;;;;;;;-145.79;58.02;76516.78;5300530;28;20463;-70
2023/09/27 14:58:12;;;;;;;8.68;3.95;;;;;;;-145.79;58.90;76518.91;5303332;28;20142;-71
2023/09/27 15:00:43;;;;;;;7.30;4.85;;;;;;;-145.79;58.42;76525.28;5312013;28;20028;-71
2023/09/27 15:03:15;;;;;;;6.18;3.65;;;;;;;-145.79;57.97;76516.78;5314679;28;20100;-70
2023/09/27 15:05:46;;;;;;;6.35;3.97;;;;;;;-145.79;58.54;76508.31;5308699;28;20078;-68
2023/09/27 15:08:17;;;;;;;6.32;4.00;;;;;;;-145.79;58.42;76527.38;5310738;28;20472;-69
2023/09/27 15:10:49;;;;;;;5.22;3.92;;;;;;;-145.79;58.92;76514.69;5310126;28;20034;-67
2023/09/27 15:13:20;;;;;;;7.57;4.60;;;;;;;-145.79;58.88;76499.84;5306731;28;20498;-68
2023/09/27 15:15:52;;;;;;;5.45;4.95;;;;;;;-145.79;59.74;76508.31;5309549;28;20032;-67
2023/09/27 15:18:23;;;;;;;4.18;3.75;;;;;;;-145.79;59.05;76508.31;5307130;28;20436;-68
2023/09/27 15:20:54;;;;;;;5.65;4.32;;;;;;;-145.79;59.48;76514.69;5315378;28;20462;-68
2023/09/27 15:23:26;;;;;;;5.68;4.65;;;;;;;-145.79;59.44;76516.78;5306318;28;20341;-68
2023/09/27 15:25:58;;;;;;;6.13;3.80;;;;;;;-145.79;59.64;76510.44;5294372;28;20062;-68
2023/09/27 15:28:30;;;;;;;7.65;5.60;;;;;;;-145.79;60.12;76514.69;5307809;28;20048;-68
2023/09/27 15:31:05;;;;;;;9.77;3.92;;;;;;;-145.79;59.76;76518.91;5313023;28;20032;-67
2023/09/27 15:33:38;;;;;;;4.22;3.58;;;;;;;-145.79;61.04;76529.50;5311754;28;20122;-70
2023/09/27 15:36:11;;;;;;;6.13;4.05;;;;;;;-145.79;60.77;76525.28;5301920;28;20032;-69
2023/09/27 15:38:44;;;;;;;31.45;28.42;;;;;;;-145.79;61.61;76527.38;5314100;28;20035;-71
2023/09/27 15:41:19;;;;;;;8.70;7.10;;;;;;;-145.79;61.45;76521.03;5304892;28;20066;-70
2023/09/27 15:43:51;;;;;;;6.75;3.47;;;;;;;-145.79;60.80;76535.88;5315385;28;20077;-71
2023/09/27 15:46:22;;;;;;;4.57;3.00;;;;;;;-145.79;60.08;76529.50;5318499;28;20459;-71
2023/09/27 15:48:54;;;;;;;5.25;3.58;;;;;;;-145.79;61.18;76533.75;5316896;28;20028;-70
2023/09/27 15:51:25;;;;;;;8.73;3.50;;;;;;;-145.79;60.25;76538.00;5314487;28;20035;-69
2023/09/27 15:53:56;;;;;;;5.97;3.53;;;;;;;-145.79;61.39;76529.50;5317579;28;20479;-69
2023/09/27 15:56:28;;;;;;;6.53;3.30;;;;;;;-145.79;60.93;76540.09;5319808;28;20016;-70
2023/09/27 15:58:59;;;;;;;7.20;4.38;;;;;;;-145.79;60.66;76542.22;5310349;27;20089;-69
2023/09/27 16:01:30;;;;;;;6.97;4.15;;;;;;;-145.79;60.88;76540.09;5320285;28;20023;-70
2023/09/27 16:04:02;;;;;;;4.00;3.45;;;;;;;-145.79;61.04;76542.22;5304971;28;20498;-69
2023/09/27 16:06:34;;;;;;;5.72;3.53;;;;;;;-145.79;60.91;76533.75;5318344;28;20054;-70
2023/09/27 16:09:06;;;;;;;5.70;3.92;;;;;;;-145.79;60.70;76544.34;5311646;28;20103;-67
2023/09/27 16:11:37;;;;;;;4.50;3.58;;;;;;;-145.79;61.03;76542.22;5318316;28;20080;-71
2023/09/27 16:14:09;;;;;;;4.85;3.50;;;;;;;-145.79;60.47;76540.09;5315869;28;20032;-71
2023/09/27 16:16:40;;;;;;;5.65;3.88;;;;;;;-145.79;60.88;76546.47;5319103;28;20019;-71
2023/09/27 16:19:12;;;;;;;5.00;3.58;;;;;;;-145.79;61.19;76550.69;5318996;28;20398;-72
2023/09/27 16:21:44;;;;;;;6.18;4.03;;;;;;;-145.79;61.15;76540.09;5311731;28;20086;-73
2023/09/27 16:24:15;;;;;;;4.80;3.85;;;;;;;-145.79;61.50;76552.81;5299684;28;20028;-72
2023/09/27 16:26:48;;;;;;;7.18;3.63;;;;;;;-145.79;61.33;76554.94;5307358;28;20023;-72
2023/09/27 16:29:19;;;;;;;4.65;2.97;;;;;;;-145.79;61.42;76554.94;5302682;28;20024;-73
2023/09/27 16:31:51;;;;;;;5.18;3.80;;;;;;;-145.79;61.60;76552.81;5315541;28;20039;-72
2023/09/27 16:34:23;;;;;;;4.68;2.97;;;;;;;-145.79;61.60;76550.69;5308661;28;20032;-72
2023/09/27 16:36:54;;;;;;;4.40;3.40;;;;;;;-145.79;61.93;76559.19;5315010;28;20080;-71
2023/09/27 16:39:25;;;;;;;4.03;3.47;;;;;;;-145.79;62.46;76550.69;5314371;28;20060;-71
2023/09/27 16:41:57;;;;;;;5.50;3.42;;;;;;;-145.79;62.07;76550.69;5306303;28;20032;-71
2023/09/27 16:44:28;;;;;;;4.28;3.03;;;;;;;-145.79;62.51;76563.41;5302498;28;20021;-70
2023/09/27 16:46:59;;;;;;;4.57;3.38;;;;;;;-145.79;62.65;76569.78;5307285;28;20111;-71
2023/09/27 16:49:31;;;;;;;5.47;3.63;;;;;;;-145.79;62.65;76571.91;5304122;28;20448;-70
2023/09/27 16:52:02;;;;;;;5.45;3.78;;;;;;;-145.79;63.13;76569.78;5307748;28;20198;-71
2023/09/27 16:54:34;;;;;;;11.45;7.10;;;;;;;-145.79;63.52;76571.91;5304223;27;20497;-71
